createdAt,value
2023-05-18T00:02:22.910Z,4.20
2023-05-18T00:04:50.347Z,3.60
2023-05-18T00:07:27.254Z,4.20
2023-05-18T00:10:01.563Z,4.10
2023-05-18T00:16:18.456Z,4.00
2023-05-18T00:18:55.486Z,4.20
2023-05-18T00:21:31.057Z,4.10
2023-05-18T00:24:25.394Z,4.10
2023-05-18T00:26:55.504Z,4.30
2023-05-18T00:29:32.150Z,4.30
2023-05-18T00:32:04.595Z,4.60
2023-05-18T00:34:38.205Z,5.10
2023-05-18T00:37:05.034Z,4.30
2023-05-18T00:39:36.405Z,4.20
2023-05-18T00:42:26.913Z,5.10
2023-05-18T00:45:04.653Z,4.70
2023-05-18T00:47:47.861Z,5.10
2023-05-18T00:50:15.218Z,5.20
2023-05-18T00:52:46.515Z,4.40
2023-05-18T00:55:16.513Z,4.70
2023-05-18T00:57:45.063Z,4.80
2023-05-18T01:00:13.758Z,4.90
2023-05-18T01:02:45.550Z,5.00
2023-05-18T01:05:12.921Z,5.10
2023-05-18T01:07:43.705Z,4.80
2023-05-18T01:10:15.750Z,4.60
2023-05-18T01:13:15.328Z,4.60
2023-05-18T01:15:50.190Z,4.50
2023-05-18T01:18:33.571Z,5.00
2023-05-18T01:21:10.700Z,4.90
2023-05-18T01:23:57.627Z,5.30
2023-05-18T01:26:32.777Z,5.10
2023-05-18T01:29:06.056Z,5.00
2023-05-18T01:31:34.127Z,5.20
2023-05-18T01:34:23.791Z,5.10
2023-05-18T01:37:00.425Z,4.60
2023-05-18T01:39:48.526Z,5.60
2023-05-18T01:42:30.607Z,4.60
2023-05-18T01:45:02.613Z,4.90
2023-05-18T01:47:39.088Z,4.40
2023-05-18T01:50:13.422Z,4.00
2023-05-18T01:52:51.590Z,3.70
2023-05-18T01:55:21.754Z,3.90
2023-05-18T01:57:52.379Z,4.00
2023-05-18T02:00:24.209Z,3.40
2023-05-18T02:02:51.594Z,3.10
2023-05-18T02:05:19.413Z,4.00
2023-05-18T02:07:49.418Z,3.30
2023-05-18T02:10:17.225Z,3.40
2023-05-18T02:12:48.551Z,3.20
2023-05-18T02:15:16.709Z,3.60
2023-05-18T02:17:46.337Z,3.90
2023-05-18T02:20:17.960Z,3.40
2023-05-18T02:22:47.229Z,3.40
2023-05-18T02:25:16.692Z,3.90
2023-05-18T02:27:43.482Z,3.50
2023-05-18T02:30:11.670Z,3.70
2023-05-18T02:32:42.132Z,4.50
2023-05-18T02:35:22.519Z,4.00
2023-05-18T02:38:02.095Z,3.80
2023-05-18T02:41:24.339Z,3.90
2023-05-18T02:44:13.169Z,4.10
2023-05-18T02:47:31.697Z,4.10
2023-05-18T02:51:03.506Z,4.00
2023-05-18T02:58:11.987Z,4.20
2023-05-18T03:01:49.413Z,4.50
2023-05-18T03:04:36.868Z,4.70
2023-05-18T03:07:37.534Z,4.30
2023-05-18T03:10:15.425Z,5.90
2023-05-18T03:13:02.216Z,4.90
2023-05-18T03:15:45.071Z,5.00
2023-05-18T03:18:17.386Z,4.80
2023-05-18T03:20:51.797Z,5.90
2023-05-18T03:23:23.961Z,4.80
2023-05-18T03:26:18.279Z,4.30
2023-05-18T03:28:49.113Z,4.40
2023-05-18T03:31:24.692Z,4.90
2023-05-18T03:34:00.312Z,4.50
2023-05-18T03:37:41.050Z,4.80
2023-05-18T03:41:19.748Z,4.60
2023-05-18T03:43:55.590Z,4.40
2023-05-18T03:46:41.409Z,4.60
2023-05-18T03:53:09.056Z,4.40
2023-05-18T04:01:20.739Z,4.70
2023-05-18T04:03:56.098Z,4.60
2023-05-18T04:07:14.279Z,4.80
2023-05-18T04:09:52.329Z,5.10
2023-05-18T04:12:41.492Z,4.90
2023-05-18T04:15:17.448Z,5.30
2023-05-18T04:17:55.594Z,4.40
2023-05-18T04:20:24.889Z,4.90
2023-05-18T04:23:40.331Z,5.00
2023-05-18T04:29:05.683Z,5.20
2023-05-18T04:31:41.319Z,5.30
2023-05-18T04:34:13.123Z,5.00
2023-05-18T04:36:42.360Z,5.20
2023-05-18T04:39:10.506Z,4.70
2023-05-18T04:41:41.669Z,5.30
2023-05-18T04:44:09.062Z,4.60
2023-05-18T04:46:39.298Z,4.90
2023-05-18T04:49:08.649Z,5.20
2023-05-18T04:51:36.331Z,6.90
2023-05-18T04:54:03.358Z,7.20
2023-05-18T04:56:42.418Z,9.80
2023-05-18T04:59:36.506Z,9.70
2023-05-18T05:03:25.475Z,9.50
2023-05-18T05:06:11.063Z,7.70
2023-05-18T05:08:38.236Z,5.30
2023-05-18T05:11:05.254Z,4.80
2023-05-18T05:13:34.381Z,3.80
2023-05-18T05:21:04.194Z,3.90
2023-05-18T05:23:37.843Z,4.30
2023-05-18T05:26:06.583Z,4.20
2023-05-18T05:28:33.723Z,4.50
2023-05-18T05:31:11.422Z,4.20
2023-05-18T05:33:38.316Z,4.50
2023-05-18T05:36:10.732Z,4.70
2023-05-18T05:38:39.349Z,4.40
2023-05-18T05:41:06.485Z,4.20
2023-05-18T05:43:33.900Z,4.30
2023-05-18T05:46:01.614Z,3.80
2023-05-18T05:48:28.787Z,4.10
2023-05-18T05:50:59.441Z,4.30
2023-05-18T05:53:29.194Z,4.10
2023-05-18T05:55:56.294Z,3.40
2023-05-18T05:58:23.264Z,3.30
2023-05-18T06:00:54.234Z,3.60
2023-05-18T06:03:21.268Z,3.20
2023-05-18T06:05:51.669Z,3.30
2023-05-18T06:08:20.635Z,3.40
2023-05-18T06:10:48.011Z,3.40
2023-05-18T06:13:16.998Z,3.20
2023-05-18T06:15:50.021Z,3.30
2023-05-18T06:18:16.932Z,3.60
2023-05-18T06:20:55.605Z,3.60
2023-05-18T06:23:23.130Z,7.60
2023-05-18T06:26:07.452Z,8.30
2023-05-18T06:28:37.482Z,6.60
2023-05-18T06:31:22.993Z,5.70
2023-05-18T06:33:54.401Z,5.00
2023-05-18T06:36:21.405Z,4.50
2023-05-18T06:38:48.436Z,4.20
2023-05-18T06:41:15.616Z,4.20
2023-05-18T06:43:42.703Z,3.70
2023-05-18T06:46:23.668Z,4.10
2023-05-18T06:49:05.454Z,3.70
2023-05-18T06:51:32.601Z,5.70
2023-05-18T06:53:59.436Z,9.20
2023-05-18T06:56:26.535Z,8.10
2023-05-18T06:58:57.355Z,4.10
2023-05-18T07:01:27.194Z,4.20
2023-05-18T07:06:25.169Z,3.70
2023-05-18T07:08:52.246Z,3.50
2023-05-18T07:11:19.277Z,3.50
2023-05-18T07:13:45.977Z,3.60
2023-05-18T07:16:12.884Z,3.60
2023-05-18T07:18:41.582Z,3.50
2023-05-18T07:21:08.634Z,4.00
2023-05-18T07:23:35.487Z,3.30
2023-05-18T07:26:02.404Z,4.20
2023-05-18T07:28:29.654Z,4.00
2023-05-18T07:30:56.477Z,3.90
2023-05-18T07:33:23.270Z,4.20
2023-05-18T07:35:50.167Z,4.60
2023-05-18T07:38:18.990Z,4.00
2023-05-18T07:40:45.947Z,5.30
2023-05-18T07:43:12.816Z,4.80
2023-05-18T07:45:39.754Z,4.20
2023-05-18T07:48:07.662Z,3.80
2023-05-18T07:50:35.194Z,3.90
2023-05-18T07:53:02.433Z,5.00
2023-05-18T07:55:29.469Z,3.90
2023-05-18T07:57:56.797Z,4.00
2023-05-18T08:00:23.771Z,4.10
2023-05-18T08:02:51.088Z,4.40
2023-05-18T08:05:18.086Z,3.50
2023-05-18T08:07:45.342Z,3.70
2023-05-18T08:10:12.028Z,4.40
2023-05-18T08:12:39.148Z,5.00
2023-05-18T08:15:07.293Z,4.30
2023-05-18T08:17:34.102Z,4.00
2023-05-18T08:20:03.415Z,4.00
2023-05-18T08:22:30.438Z,4.50
2023-05-18T08:25:00.314Z,3.70
2023-05-18T08:27:28.680Z,4.10
2023-05-18T08:29:57.856Z,3.80
2023-05-18T08:32:25.001Z,4.40
2023-05-18T08:34:52.724Z,4.10
2023-05-18T08:37:28.901Z,4.00
2023-05-18T08:39:56.053Z,3.70
2023-05-18T08:42:45.698Z,4.10
2023-05-18T08:45:29.827Z,3.80
2023-05-18T08:48:01.602Z,4.60
2023-05-18T08:50:31.870Z,5.30
2023-05-18T08:53:15.284Z,7.50
2023-05-18T08:55:46.004Z,10.00
2023-05-18T08:58:17.025Z,7.50
2023-05-18T09:00:45.884Z,5.50
2023-05-18T09:03:13.631Z,4.40
2023-05-18T09:05:41.482Z,4.60
2023-05-18T09:08:09.238Z,4.80
2023-05-18T09:10:36.103Z,5.10
2023-05-18T09:13:06.779Z,4.30
2023-05-18T09:15:36.798Z,4.10
2023-05-18T09:18:03.978Z,3.90
2023-05-18T09:20:31.614Z,4.20
2023-05-18T09:22:59.205Z,3.90
2023-05-18T09:25:26.968Z,4.10
2023-05-18T09:27:55.175Z,3.50
2023-05-18T09:30:24.034Z,4.50
2023-05-18T09:32:52.428Z,4.00
2023-05-18T09:35:19.243Z,3.70
2023-05-18T09:37:46.349Z,3.90
2023-05-18T09:40:13.064Z,3.60
2023-05-18T09:42:44.414Z,3.50
2023-05-18T09:45:26.177Z,3.80
2023-05-18T09:47:53.737Z,4.00
2023-05-18T09:50:24.216Z,4.50
2023-05-18T09:52:53.710Z,4.10
2023-05-18T09:55:20.627Z,3.80
2023-05-18T09:57:49.755Z,3.70
2023-05-18T10:00:19.439Z,4.00
2023-05-18T10:02:51.539Z,4.10
2023-05-18T10:05:23.901Z,4.10
2023-05-18T10:07:51.071Z,3.80
2023-05-18T10:10:19.880Z,4.70
2023-05-18T10:12:47.859Z,4.40
2023-05-18T10:15:16.465Z,4.80
2023-05-18T10:17:46.695Z,4.30
2023-05-18T10:20:18.646Z,4.50
2023-05-18T10:22:47.435Z,4.30
2023-05-18T10:25:24.951Z,4.00
2023-05-18T10:28:00.503Z,5.60
2023-05-18T10:30:27.731Z,5.10
2023-05-18T10:32:56.431Z,5.30
2023-05-18T10:38:18.719Z,7.20
2023-05-18T10:40:51.490Z,5.30
2023-05-18T10:43:21.924Z,5.50
2023-05-18T10:45:56.668Z,10.80
2023-05-18T10:48:28.925Z,5.90
2023-05-18T10:51:34.667Z,5.40
2023-05-18T10:54:22.589Z,5.70
2023-05-18T10:56:52.869Z,5.60
2023-05-18T10:59:24.540Z,6.00
2023-05-18T11:01:57.514Z,6.20
2023-05-18T11:04:31.562Z,6.50
2023-05-18T11:07:35.077Z,6.10
2023-05-18T11:10:56.677Z,6.40
2023-05-18T11:13:28.697Z,6.70
2023-05-18T11:15:58.003Z,5.90
2023-05-18T11:18:43.516Z,6.40
2023-05-18T11:21:41.051Z,5.30
2023-05-18T11:24:22.387Z,6.00
2023-05-18T11:27:16.666Z,5.60
2023-05-18T11:29:44.497Z,5.70
2023-05-18T11:32:34.847Z,5.90
2023-05-18T11:37:46.498Z,6.20
2023-05-18T11:40:46.181Z,6.30
2023-05-18T11:43:24.494Z,6.60
2023-05-18T11:45:59.011Z,7.70
2023-05-18T11:48:31.369Z,7.40
2023-05-18T11:51:01.438Z,7.00
2023-05-18T11:53:32.428Z,7.50
2023-05-18T11:56:10.186Z,7.40
2023-05-18T11:58:37.164Z,6.40
2023-05-18T12:01:06.269Z,7.60
2023-05-18T12:03:37.249Z,6.20
2023-05-18T12:06:20.732Z,6.50
2023-05-18T12:08:47.784Z,5.80
2023-05-18T12:11:27.478Z,5.90
2023-05-18T12:14:14.895Z,5.80
2023-05-18T13:15:56.356Z,5.30
2023-05-18T13:18:28.340Z,5.00
2023-05-18T13:21:08.669Z,5.60
2023-05-18T13:23:39.469Z,4.60
2023-05-18T13:26:07.898Z,5.00
2023-05-18T13:28:39.351Z,4.80
2023-05-18T13:31:07.784Z,4.70
2023-05-18T13:33:40.625Z,4.90
2023-05-18T13:36:18.531Z,4.70
2023-05-18T13:38:52.518Z,4.30
2023-05-18T13:41:28.312Z,4.60
2023-05-18T13:44:00.899Z,4.40
2023-05-18T13:46:37.947Z,4.00
2023-05-18T13:49:23.859Z,4.40
2023-05-18T13:51:52.183Z,4.30
2023-05-18T13:54:23.539Z,4.80
2023-05-18T13:57:06.703Z,5.00
2023-05-18T13:59:34.912Z,4.60
2023-05-18T14:02:03.314Z,4.90
2023-05-18T14:04:36.627Z,4.20
2023-05-18T14:07:05.198Z,4.40
2023-05-18T14:09:33.722Z,4.90
2023-05-18T14:12:08.722Z,5.40
2023-05-18T14:14:46.938Z,5.30
2023-05-18T14:17:16.868Z,4.60
2023-05-18T14:20:06.484Z,4.50
2023-05-18T14:22:49.500Z,4.80
2023-05-18T14:25:33.632Z,4.60
2023-05-18T14:28:18.409Z,4.90
2023-05-18T14:31:30.385Z,4.50
2023-05-18T14:33:59.855Z,4.90
2023-05-18T14:36:32.323Z,4.90
2023-05-18T14:39:00.639Z,4.50
2023-05-18T14:41:46.722Z,5.30
2023-05-18T14:44:28.061Z,5.00
2023-05-18T14:47:20.698Z,4.20
2023-05-18T14:50:18.387Z,4.90
2023-05-18T14:52:53.329Z,5.10
2023-05-18T14:55:32.608Z,6.00
2023-05-18T14:58:14.838Z,4.90
2023-05-18T15:00:45.618Z,4.30
2023-05-18T15:03:17.525Z,4.60
2023-05-18T15:05:58.513Z,4.20
2023-05-18T15:08:26.866Z,4.50
2023-05-18T15:11:01.462Z,4.80
2023-05-18T15:13:32.068Z,4.80
2023-05-18T15:16:02.148Z,4.40
2023-05-18T15:18:32.572Z,4.80
2023-05-18T15:21:03.712Z,4.90
2023-05-18T15:23:34.144Z,4.50
2023-05-18T15:26:02.795Z,4.40
2023-05-18T15:28:31.008Z,4.70
2023-05-18T15:30:59.192Z,4.90
2023-05-18T15:33:27.228Z,4.30
2023-05-18T15:36:01.071Z,4.80
2023-05-18T15:38:33.889Z,4.60
2023-05-18T15:41:02.759Z,4.90
2023-05-18T15:43:31.173Z,4.80
2023-05-18T15:46:02.887Z,4.90
2023-05-18T15:48:31.210Z,4.60
2023-05-18T15:51:02.273Z,4.90
2023-05-18T15:53:41.710Z,4.50
2023-05-18T15:56:09.930Z,4.60
2023-05-18T15:58:38.065Z,4.30
2023-05-18T16:01:07.748Z,5.00
2023-05-18T16:03:38.593Z,5.00
2023-05-18T16:06:06.978Z,4.90
2023-05-18T16:08:35.356Z,5.10
2023-05-18T16:11:05.561Z,4.70
2023-05-18T16:13:36.055Z,5.30
2023-05-18T16:16:10.329Z,4.40
2023-05-18T16:18:41.732Z,5.20
2023-05-18T16:21:09.741Z,4.70
2023-05-18T16:23:37.858Z,4.70
2023-05-18T16:26:06.070Z,4.60
2023-05-18T16:28:35.031Z,4.80
2023-05-18T16:31:09.089Z,4.40
2023-05-18T16:33:38.541Z,4.30
2023-05-18T16:36:07.748Z,4.10
2023-05-18T16:38:37.594Z,4.30
2023-05-18T16:41:06.533Z,4.30
2023-05-18T16:43:41.300Z,5.00
2023-05-18T16:46:13.797Z,4.20
2023-05-18T16:48:46.433Z,4.30
2023-05-18T16:54:26.304Z,4.20
2023-05-18T16:57:13.852Z,4.60
2023-05-18T16:59:44.968Z,4.00
2023-05-18T17:02:18.292Z,4.30
2023-05-18T17:04:46.689Z,4.50
2023-05-18T17:07:29.163Z,4.70
2023-05-18T17:10:22.201Z,3.70
2023-05-18T17:13:27.893Z,4.00
2023-05-18T17:16:08.897Z,4.20
2023-05-18T17:18:36.978Z,4.90
2023-05-18T17:21:04.918Z,4.80
2023-05-18T17:23:32.927Z,4.60
2023-05-18T17:26:06.420Z,5.00
2023-05-18T17:28:37.204Z,5.20
2023-05-18T17:31:08.435Z,5.10
2023-05-18T17:33:40.487Z,5.60
2023-05-18T17:36:10.945Z,5.30
2023-05-18T17:38:43.521Z,5.00
2023-05-18T17:41:11.805Z,5.40
2023-05-18T17:43:45.911Z,5.30
2023-05-18T17:46:27.478Z,5.20
2023-05-18T17:48:59.106Z,4.50
2023-05-18T17:51:27.549Z,5.60
2023-05-18T17:53:56.812Z,5.20
2023-05-18T17:56:26.557Z,5.50
2023-05-18T17:58:54.748Z,5.50
2023-05-18T18:01:26.324Z,5.30
2023-05-18T18:03:57.354Z,4.90
2023-05-18T18:06:26.187Z,4.80
2023-05-18T18:08:57.712Z,5.10
2023-05-18T18:11:29.674Z,4.70
2023-05-18T18:13:57.809Z,5.20
2023-05-18T18:16:44.253Z,4.70
2023-05-18T18:19:20.428Z,5.40
2023-05-18T18:22:13.748Z,4.70
2023-05-18T18:24:48.545Z,4.70
2023-05-18T18:27:47.929Z,4.80
2023-05-18T18:30:44.618Z,4.40
2023-05-18T18:33:14.654Z,4.40
2023-05-18T18:35:47.331Z,5.40
2023-05-18T18:38:17.008Z,5.10
2023-05-18T18:40:48.135Z,5.90
2023-05-18T18:43:16.100Z,5.20
2023-05-18T18:45:44.309Z,4.80
2023-05-18T18:48:12.399Z,5.10
2023-05-18T18:50:40.345Z,4.80
2023-05-18T18:53:08.253Z,4.70
2023-05-18T18:55:36.430Z,4.70
2023-05-18T18:58:04.544Z,4.60
2023-05-18T19:00:32.530Z,4.50
2023-05-18T19:03:02.808Z,4.90
2023-05-18T19:05:31.979Z,4.90
2023-05-18T19:08:01.824Z,5.00
2023-05-18T19:10:32.962Z,5.00
2023-05-18T19:13:05.430Z,7.00
2023-05-18T19:15:34.759Z,5.90
2023-05-18T19:18:04.032Z,5.90
2023-05-18T19:20:32.064Z,6.60
2023-05-18T19:23:07.962Z,5.60
2023-05-18T19:25:36.035Z,5.80
2023-05-18T19:28:04.324Z,6.10
2023-05-18T19:30:32.450Z,6.00
2023-05-18T19:33:00.543Z,6.20
2023-05-18T19:35:29.021Z,6.10
2023-05-18T19:38:02.363Z,6.20
2023-05-18T19:40:39.436Z,6.30
2023-05-18T19:43:07.656Z,5.70
2023-05-18T19:45:38.135Z,5.70
2023-05-18T19:48:11.647Z,5.40
2023-05-18T19:50:39.759Z,5.80
2023-05-18T19:53:07.792Z,5.20
2023-05-18T19:55:37.153Z,5.50
2023-05-18T19:58:06.848Z,4.60
2023-05-18T20:00:46.792Z,5.10
2023-05-18T20:03:17.048Z,5.00
2023-05-18T20:05:45.184Z,5.20
2023-05-18T20:08:13.309Z,5.10
2023-05-18T20:10:41.527Z,5.20
2023-05-18T20:13:10.222Z,8.50
2023-05-18T20:15:44.924Z,11.40
2023-05-18T20:18:13.071Z,12.40
2023-05-18T20:20:41.272Z,9.40
2023-05-18T20:23:11.364Z,7.00
2023-05-18T20:25:45.010Z,6.40
2023-05-18T20:28:13.673Z,4.90
2023-05-18T20:30:43.095Z,5.00
2023-05-18T20:33:12.654Z,5.20
2023-05-18T20:35:41.780Z,4.70
2023-05-18T20:38:11.828Z,4.80
2023-05-18T20:40:39.895Z,7.00
2023-05-18T20:43:13.910Z,4.30
2023-05-18T20:45:49.290Z,5.00
2023-05-18T20:48:24.692Z,4.30
2023-05-18T20:50:53.080Z,4.50
2023-05-18T20:53:21.255Z,3.90
2023-05-18T20:55:50.490Z,4.30
2023-05-18T20:58:18.608Z,4.60
2023-05-18T21:00:46.701Z,4.40
2023-05-18T21:03:15.238Z,4.30
2023-05-18T21:05:43.973Z,4.40
2023-05-18T21:08:11.944Z,4.50
2023-05-18T21:10:39.914Z,5.00
2023-05-18T21:13:08.047Z,4.70
2023-05-18T21:15:37.456Z,4.90
2023-05-18T21:18:05.463Z,4.50
2023-05-18T21:20:35.759Z,4.60
2023-05-18T21:23:03.923Z,5.00
2023-05-18T21:25:35.071Z,4.80
2023-05-18T21:28:03.298Z,4.90
2023-05-18T21:30:32.387Z,5.50
2023-05-18T21:33:01.368Z,5.50
2023-05-18T21:35:32.221Z,5.20
2023-05-18T21:40:29.118Z,4.90
2023-05-18T21:42:58.336Z,4.40
2023-05-18T21:47:57.862Z,4.50
2023-05-18T21:50:26.849Z,5.10
2023-05-18T21:52:58.371Z,4.70
2023-05-18T21:55:29.097Z,4.80
2023-05-18T21:57:57.313Z,4.70
2023-05-18T22:00:25.560Z,4.80
2023-05-18T22:03:02.549Z,4.40
2023-05-18T22:05:30.918Z,5.00
2023-05-18T22:07:59.237Z,5.20
2023-05-18T22:10:27.350Z,4.60
2023-05-18T22:12:58.608Z,4.80
2023-05-18T22:15:27.071Z,5.00
2023-05-18T22:17:55.813Z,5.70
2023-05-18T22:20:24.078Z,5.30
2023-05-18T22:22:52.211Z,5.00
2023-05-18T22:25:20.515Z,4.90
2023-05-18T22:27:49.130Z,5.00
2023-05-18T22:30:21.074Z,4.90
2023-05-18T22:32:49.965Z,5.80
2023-05-18T22:35:19.521Z,4.70
2023-05-18T22:37:48.576Z,5.00
2023-05-18T22:40:16.826Z,5.40
2023-05-18T22:42:45.044Z,5.10
2023-05-18T22:45:14.049Z,4.80
2023-05-18T22:47:45.334Z,5.90
2023-05-18T22:50:13.658Z,5.70
2023-05-18T22:52:41.743Z,6.10
2023-05-18T22:55:14.127Z,5.10
2023-05-18T22:57:46.808Z,5.50
2023-05-18T23:00:18.167Z,5.50
2023-05-18T23:02:47.582Z,5.50
2023-05-18T23:05:17.252Z,6.00
2023-05-18T23:07:47.087Z,5.90
2023-05-18T23:10:20.884Z,5.40
2023-05-18T23:12:55.599Z,5.40
2023-05-18T23:15:23.628Z,5.50
2023-05-18T23:17:54.784Z,4.90
2023-05-18T23:20:24.106Z,5.60
2023-05-18T23:22:52.237Z,4.90
2023-05-18T23:25:24.364Z,5.30
2023-05-18T23:27:52.546Z,5.70
2023-05-18T23:30:20.900Z,4.60
2023-05-18T23:32:57.104Z,5.60
2023-05-18T23:35:28.090Z,5.10
2023-05-18T23:37:59.249Z,5.90
2023-05-18T23:40:28.553Z,5.40
2023-05-18T23:42:57.196Z,5.30
2023-05-18T23:45:25.703Z,5.50
2023-05-18T23:47:56.279Z,5.30
2023-05-18T23:50:27.615Z,5.50
2023-05-18T23:53:00.742Z,4.60
2023-05-18T23:55:30.349Z,5.70
2023-05-18T23:57:58.716Z,5.10
